Time;durP1;ratioP1;P1;durP2;ratioP2;P2;SDS_P1;SDS_P2;PMS_P1;PMS_P2;Temp;Humidity;BMP_temperature;BMP_pressure;BME280_temperature;BME280_humidity;BME280_pressure;Samples;Min_cycle;Max_cycle;Signal;HPM_P1;HPM_P2
2023/07/21 00:00:32;;;;;;;0.50;0.50;;;;;;;;;;7429933;19;20133;-88
2023/07/21 00:02:59;;;;;;;0.70;0.70;;;;;;;;;;7426050;19;20185;-88
2023/07/21 00:05:25;;;;;;;0.63;0.50;;;;;;;;;;7403339;19;20204;-86
2023/07/21 00:07:52;;;;;;;0.60;0.60;;;;;;;;;;7394881;19;20144;-87
2023/07/21 00:10:19;;;;;;;0.77;0.77;;;;;;;;;;7395413;19;20137;-87
2023/07/21 00:12:48;;;;;;;0.60;0.60;;;;;;;;;;7392543;19;20177;-86
2023/07/21 00:15:17;;;;;;;0.47;0.47;;;;;;;;;;7393317;19;20132;-87
2023/07/21 00:17:47;;;;;;;0.68;0.68;;;;;;;;;;7393810;19;20637;-87
2023/07/21 00:20:19;;;;;;;0.50;0.50;;;;;;;;;;7393559;19;20145;-86
2023/07/21 00:22:46;;;;;;;0.38;0.38;;;;;;;;;;7392218;19;20618;-86
2023/07/21 00:25:13;;;;;;;0.35;0.35;;;;;;;;;;7393348;19;20205;-88
2023/07/21 00:27:42;;;;;;;0.40;0.40;;;;;;;;;;7393792;19;20147;-88
2023/07/21 00:30:09;;;;;;;1.05;0.90;;;;;;;;;;7392562;19;20136;-88
2023/07/21 00:32:37;;;;;;;0.47;0.47;;;;;;;;;;7390652;19;20798;-88
2023/07/21 00:35:06;;;;;;;0.30;0.30;;;;;;;;;;7393161;19;20156;-88
2023/07/21 00:37:33;;;;;;;0.35;0.35;;;;;;;;;;7393001;19;20200;-86
2023/07/21 00:40:03;;;;;;;1.88;0.90;;;;;;;;;;7393469;19;20487;-86
2023/07/21 00:42:31;;;;;;;0.50;0.50;;;;;;;;;;7390909;19;20196;-88
2023/07/21 00:44:57;;;;;;;0.63;0.63;;;;;;;;;;7392581;19;20145;-89
2023/07/21 00:47:24;;;;;;;0.65;0.65;;;;;;;;;;7392575;19;20125;-88
2023/07/21 00:49:52;;;;;;;0.40;0.40;;;;;;;;;;7390480;19;20156;-87
2023/07/21 00:52:19;;;;;;;3.55;0.47;;;;;;;;;;7390408;19;20600;-89
2023/07/21 00:54:47;;;;;;;1.70;0.82;;;;;;;;;;7392088;19;20161;-87
2023/07/21 00:57:15;;;;;;;0.50;0.50;;;;;;;;;;7392694;19;20125;-87
2023/07/21 00:59:41;;;;;;;0.45;0.45;;;;;;;;;;7392076;19;20145;-85
2023/07/21 01:02:09;;;;;;;1.85;0.98;;;;;;;;;;7391599;19;20168;-87
2023/07/21 01:04:36;;;;;;;0.35;0.35;;;;;;;;;;7393409;19;20144;-86
2023/07/21 01:07:05;;;;;;;0.45;0.45;;;;;;;;;;7393171;19;20150;-86
2023/07/21 01:09:35;;;;;;;0.40;0.40;;;;;;;;;;7393453;19;20208;-86
2023/07/21 01:12:03;;;;;;;0.45;0.45;;;;;;;;;;7392005;19;20145;-86
2023/07/21 01:14:30;;;;;;;0.32;0.32;;;;;;;;;;7394623;19;20141;-86
2023/07/21 01:16:59;;;;;;;0.50;0.50;;;;;;;;;;7392653;19;20957;-85
2023/07/21 01:19:28;;;;;;;0.93;0.75;;;;;;;;;;7392878;19;20121;-86
2023/07/21 01:22:05;;;;;;;0.40;0.40;;;;;;;;;;7391950;19;20169;-86
2023/07/21 01:24:32;;;;;;;0.65;0.57;;;;;;;;;;7393978;19;20128;-86
2023/07/21 01:27:00;;;;;;;0.50;0.50;;;;;;;;;;7395828;19;20129;-86
2023/07/21 01:29:28;;;;;;;0.60;0.60;;;;;;;;;;7395135;19;20876;-85
2023/07/21 01:31:55;;;;;;;0.60;0.60;;;;;;;;;;7392102;19;20149;-86
2023/07/21 01:34:23;;;;;;;0.38;0.38;;;;;;;;;;7393602;19;20829;-86
2023/07/21 01:36:50;;;;;;;0.40;0.40;;;;;;;;;;7394554;19;20528;-86
2023/07/21 01:39:17;;;;;;;0.45;0.45;;;;;;;;;;7392648;19;20208;-86
2023/07/21 01:41:44;;;;;;;0.65;0.65;;;;;;;;;;7395933;19;20168;-86
2023/07/21 01:44:12;;;;;;;0.40;0.40;;;;;;;;;;7401837;19;20518;-86
2023/07/21 01:46:39;;;;;;;3.60;0.55;;;;;;;;;;7404010;19;20696;-86
2023/07/21 01:49:06;;;;;;;0.50;0.50;;;;;;;;;;7406469;19;20467;-86
2023/07/21 01:51:34;;;;;;;0.40;0.40;;;;;;;;;;7405088;19;20176;-85
2023/07/21 01:54:05;;;;;;;0.30;0.30;;;;;;;;;;7405984;19;20609;-86
2023/07/21 01:56:36;;;;;;;0.30;0.30;;;;;;;;;;7406678;19;20430;-86
2023/07/21 01:59:06;;;;;;;0.40;0.40;;;;;;;;;;7404376;19;20554;-86
2023/07/21 02:01:33;;;;;;;0.40;0.40;;;;;;;;;;7404633;19;20169;-85
2023/07/21 02:04:00;;;;;;;0.50;0.50;;;;;;;;;;7406127;19;20161;-86
2023/07/21 02:06:27;;;;;;;0.47;0.47;;;;;;;;;;7403497;19;20149;-87
2023/07/21 02:08:54;;;;;;;0.63;0.63;;;;;;;;;;7399039;19;20134;-87
2023/07/21 02:11:21;;;;;;;0.60;0.60;;;;;;;;;;7399459;19;20224;-86
2023/07/21 02:13:48;;;;;;;0.30;0.30;;;;;;;;;;7398813;19;20137;-87
2023/07/21 02:16:14;;;;;;;1.65;0.45;;;;;;;;;;7399130;19;20137;-86
2023/07/21 02:18:42;;;;;;;0.43;0.43;;;;;;;;;;7402082;19;20141;-86
2023/07/21 02:21:09;;;;;;;0.35;0.35;;;;;;;;;;7404707;19;20173;-86
2023/07/21 02:23:35;;;;;;;0.77;0.77;;;;;;;;;;7406235;19;20136;-88
2023/07/21 02:26:02;;;;;;;0.50;0.50;;;;;;;;;;7407821;19;20149;-86
2023/07/21 02:28:31;;;;;;;0.55;0.55;;;;;;;;;;7410466;19;20144;-85
2023/07/21 02:31:02;;;;;;;1.20;1.10;;;;;;;;;;7407812;19;20157;-86
2023/07/21 02:33:31;;;;;;;0.40;0.40;;;;;;;;;;7404172;19;20137;-87
2023/07/21 02:36:00;;;;;;;0.38;0.38;;;;;;;;;;7398742;19;20596;-86
2023/07/21 02:38:27;;;;;;;0.30;0.30;;;;;;;;;;7399834;19;20221;-86
2023/07/21 02:40:54;;;;;;;0.40;0.40;;;;;;;;;;7394587;19;20473;-86
2023/07/21 02:43:22;;;;;;;0.57;0.57;;;;;;;;;;7406340;19;20137;-85
2023/07/21 02:45:50;;;;;;;0.75;0.60;;;;;;;;;;7398506;19;20200;-87
2023/07/21 02:48:18;;;;;;;0.73;0.73;;;;;;;;;;7403575;19;20500;-86
2023/07/21 02:50:49;;;;;;;0.38;0.38;;;;;;;;;;7404253;19;20177;-86
2023/07/21 02:53:16;;;;;;;0.52;0.52;;;;;;;;;;7401578;19;20595;-85
2023/07/21 02:55:44;;;;;;;0.32;0.32;;;;;;;;;;7401982;19;20595;-86
2023/07/21 02:58:12;;;;;;;0.47;0.47;;;;;;;;;;7401929;19;20165;-87
2023/07/21 03:00:40;;;;;;;0.82;0.55;;;;;;;;;;7399010;19;20152;-87
2023/07/21 03:03:09;;;;;;;0.40;0.40;;;;;;;;;;7396723;19;20216;-87
2023/07/21 03:05:35;;;;;;;0.40;0.40;;;;;;;;;;7397656;19;20472;-87
2023/07/21 03:08:03;;;;;;;0.30;0.30;;;;;;;;;;7396661;19;20185;-87
2023/07/21 03:10:30;;;;;;;0.30;0.30;;;;;;;;;;7397140;19;20141;-88
2023/07/21 03:12:57;;;;;;;0.50;0.50;;;;;;;;;;7395404;19;20208;-88
2023/07/21 03:15:23;;;;;;;0.40;0.40;;;;;;;;;;7396611;19;20491;-88
2023/07/21 03:17:50;;;;;;;0.45;0.45;;;;;;;;;;7398573;19;20196;-88
2023/07/21 03:20:17;;;;;;;0.82;0.82;;;;;;;;;;7396501;19;20165;-88
2023/07/21 03:22:44;;;;;;;0.43;0.43;;;;;;;;;;7396852;19;20178;-87
2023/07/21 03:25:13;;;;;;;0.45;0.45;;;;;;;;;;7399458;19;20133;-88
2023/07/21 03:27:40;;;;;;;0.45;0.45;;;;;;;;;;7400089;19;20137;-88
2023/07/21 03:30:09;;;;;;;0.75;0.60;;;;;;;;;;7429966;19;20157;-84
2023/07/21 03:32:36;;;;;;;0.30;0.30;;;;;;;;;;7427773;19;20180;-86
2023/07/21 03:35:05;;;;;;;0.40;0.40;;;;;;;;;;7413559;19;20471;-87
2023/07/21 03:37:34;;;;;;;1.00;0.60;;;;;;;;;;7392790;19;20137;-87
2023/07/21 03:40:03;;;;;;;0.55;0.55;;;;;;;;;;7394570;19;20141;-87
2023/07/21 03:42:30;;;;;;;0.85;0.75;;;;;;;;;;7392205;19;20168;-89
2023/07/21 03:44:56;;;;;;;0.30;0.30;;;;;;;;;;7394519;19;20702;-88
2023/07/21 03:47:23;;;;;;;1.23;0.80;;;;;;;;;;7395051;19;20141;-88
2023/07/21 03:49:50;;;;;;;0.38;0.38;;;;;;;;;;7394398;19;20610;-87
2023/07/21 03:52:18;;;;;;;0.40;0.40;;;;;;;;;;7390542;19;20208;-87
2023/07/21 03:54:44;;;;;;;0.38;0.38;;;;;;;;;;7392617;19;20131;-88
2023/07/21 03:57:11;;;;;;;0.43;0.43;;;;;;;;;;7393439;19;20209;-87
2023/07/21 03:59:41;;;;;;;0.70;0.70;;;;;;;;;;7393813;19;20197;-89
2023/07/21 04:02:11;;;;;;;0.55;0.55;;;;;;;;;;7393802;19;20172;-89
2023/07/21 04:04:37;;;;;;;0.47;0.47;;;;;;;;;;7393601;19;20141;-88
2023/07/21 04:07:07;;;;;;;0.40;0.40;;;;;;;;;;7393876;19;20144;-88
2023/07/21 04:09:34;;;;;;;0.75;0.75;;;;;;;;;;7393848;19;20489;-88
2023/07/21 04:12:02;;;;;;;0.50;0.50;;;;;;;;;;7392845;19;20205;-88
2023/07/21 04:14:30;;;;;;;0.73;0.73;;;;;;;;;;7394723;19;20139;-88
2023/07/21 04:16:56;;;;;;;0.68;0.68;;;;;;;;;;7392723;19;20250;-87
2023/07/21 04:19:25;;;;;;;0.30;0.30;;;;;;;;;;7392062;19;20204;-87
2023/07/21 04:21:53;;;;;;;0.50;0.50;;;;;;;;;;7389744;19;20164;-87
2023/07/21 04:24:20;;;;;;;0.40;0.40;;;;;;;;;;7393879;19;20125;-85
2023/07/21 04:26:46;;;;;;;1.08;0.57;;;;;;;;;;7393463;19;20133;-87
2023/07/21 04:29:13;;;;;;;0.40;0.40;;;;;;;;;;7390962;19;20129;-87
2023/07/21 04:31:55;;;;;;;2.95;1.02;;;;;;;;;;7391206;19;20231;-88
2023/07/21 04:34:22;;;;;;;1.05;0.43;;;;;;;;;;7392425;19;20156;-88
2023/07/21 04:36:49;;;;;;;0.85;0.85;;;;;;;;;;7392882;19;20137;-86
2023/07/21 04:39:15;;;;;;;0.40;0.40;;;;;;;;;;7390754;19;20157;-87
2023/07/21 04:41:42;;;;;;;0.45;0.45;;;;;;;;;;7389898;19;20970;-88
2023/07/21 04:44:08;;;;;;;0.75;0.75;;;;;;;;;;7392406;19;20144;-86
2023/07/21 04:46:35;;;;;;;0.40;0.40;;;;;;;;;;7389031;19;20158;-88
2023/07/21 04:49:06;;;;;;;0.40;0.40;;;;;;;;;;7393275;19;20137;-88
2023/07/21 04:51:33;;;;;;;0.38;0.38;;;;;;;;;;7391562;19;20177;-87
2023/07/21 04:54:00;;;;;;;1.00;0.95;;;;;;;;;;7390283;19;20141;-89
2023/07/21 04:56:27;;;;;;;0.68;0.68;;;;;;;;;;7390019;19;20148;-88
2023/07/21 04:58:53;;;;;;;0.40;0.40;;;;;;;;;;7392719;19;20137;-88
2023/07/21 05:01:20;;;;;;;0.30;0.30;;;;;;;;;;7392359;19;20600;-86
2023/07/21 05:03:47;;;;;;;0.57;0.57;;;;;;;;;;7395071;19;20137;-88
2023/07/21 05:06:14;;;;;;;0.30;0.30;;;;;;;;;;7392147;19;20136;-89
2023/07/21 05:08:43;;;;;;;0.30;0.30;;;;;;;;;;7390772;19;20245;-89
2023/07/21 05:11:10;;;;;;;0.40;0.40;;;;;;;;;;7391036;19;20161;-88
2023/07/21 05:13:37;;;;;;;0.40;0.40;;;;;;;;;;7392555;19;20143;-88
2023/07/21 05:16:07;;;;;;;2.75;0.95;;;;;;;;;;7388560;19;20141;-86
2023/07/21 05:18:34;;;;;;;0.40;0.40;;;;;;;;;;7395150;19;20145;-87
2023/07/21 05:21:00;;;;;;;0.50;0.50;;;;;;;;;;7391870;19;20205;-87
2023/07/21 05:23:27;;;;;;;0.30;0.30;;;;;;;;;;7395886;19;20141;-87
2023/07/21 05:26:01;;;;;;;0.70;0.70;;;;;;;;;;7397429;19;20137;-86
2023/07/21 05:28:28;;;;;;;0.50;0.50;;;;;;;;;;7394924;19;20135;-87
2023/07/21 05:30:55;;;;;;;0.50;0.43;;;;;;;;;;7392253;19;20494;-85
2023/07/21 05:33:22;;;;;;;0.70;0.70;;;;;;;;;;7395810;19;20137;-86
2023/07/21 05:35:49;;;;;;;0.45;0.45;;;;;;;;;;7394752;19;20147;-88
2023/07/21 05:38:16;;;;;;;0.50;0.50;;;;;;;;;;7396012;19;20208;-89
2023/07/21 05:40:42;;;;;;;0.52;0.52;;;;;;;;;;7394358;19;20138;-88
2023/07/21 05:43:09;;;;;;;0.93;0.93;;;;;;;;;;7396179;19;20128;-87
2023/07/21 05:45:39;;;;;;;1.45;0.85;;;;;;;;;;7398589;19;20647;-88
2023/07/21 05:48:09;;;;;;;0.30;0.30;;;;;;;;;;7420816;19;20125;-87
2023/07/21 05:50:37;;;;;;;0.40;0.40;;;;;;;;;;7421640;19;20149;-87
2023/07/21 05:53:04;;;;;;;1.63;0.68;;;;;;;;;;7417633;19;20164;-87
2023/07/21 05:55:31;;;;;;;0.30;0.30;;;;;;;;;;7396128;19;20593;-86
2023/07/21 05:57:58;;;;;;;0.30;0.30;;;;;;;;;;7396387;19;20153;-87
2023/07/21 06:00:26;;;;;;;1.38;1.05;;;;;;;;;;7390772;19;20180;-87
2023/07/21 06:02:53;;;;;;;0.40;0.40;;;;;;;;;;7392872;19;20145;-88
2023/07/21 06:05:20;;;;;;;0.75;0.75;;;;;;;;;;7393297;19;20664;-88
2023/07/21 06:07:46;;;;;;;0.50;0.50;;;;;;;;;;7390265;19;20161;-87
2023/07/21 06:10:13;;;;;;;0.50;0.50;;;;;;;;;;7388943;19;20213;-87
2023/07/21 06:12:39;;;;;;;1.25;0.70;;;;;;;;;;7391057;19;20220;-88
2023/07/21 06:15:07;;;;;;;0.70;0.70;;;;;;;;;;7390644;19;20220;-86
2023/07/21 06:17:33;;;;;;;0.50;0.50;;;;;;;;;;7392271;19;20161;-86
2023/07/21 06:20:00;;;;;;;0.50;0.50;;;;;;;;;;7418913;19;20491;-85
2023/07/21 06:22:28;;;;;;;0.38;0.38;;;;;;;;;;7420546;19;20134;-86
2023/07/21 06:24:55;;;;;;;0.68;0.65;;;;;;;;;;7422114;19;20141;-85
2023/07/21 06:27:22;;;;;;;1.48;0.82;;;;;;;;;;7399498;19;20138;-87
2023/07/21 06:29:48;;;;;;;0.52;0.52;;;;;;;;;;7396229;19;20129;-87
2023/07/21 06:32:15;;;;;;;0.45;0.45;;;;;;;;;;7392324;19;20172;-87
2023/07/21 06:34:42;;;;;;;0.57;0.57;;;;;;;;;;7394089;19;20162;-87
2023/07/21 06:37:09;;;;;;;0.45;0.45;;;;;;;;;;7393559;19;20212;-87
2023/07/21 06:39:35;;;;;;;0.38;0.38;;;;;;;;;;7393155;19;20140;-87
2023/07/21 06:42:04;;;;;;;0.50;0.50;;;;;;;;;;7391292;19;20141;-87
2023/07/21 06:44:31;;;;;;;0.30;0.30;;;;;;;;;;7393285;19;20562;-87
2023/07/21 06:46:58;;;;;;;0.70;0.70;;;;;;;;;;7393164;19;20192;-87
2023/07/21 06:49:25;;;;;;;0.30;0.30;;;;;;;;;;7390261;19;20137;-88
2023/07/21 06:51:52;;;;;;;0.60;0.60;;;;;;;;;;7393717;19;20245;-87
2023/07/21 06:54:18;;;;;;;0.52;0.52;;;;;;;;;;7399589;19;20504;-87
2023/07/21 06:56:45;;;;;;;0.98;0.93;;;;;;;;;;7400992;19;20133;-86
2023/07/21 06:59:12;;;;;;;0.55;0.55;;;;;;;;;;7419819;19;20174;-88
2023/07/21 07:01:38;;;;;;;0.43;0.43;;;;;;;;;;7427040;19;20160;-87
2023/07/21 07:04:05;;;;;;;0.40;0.40;;;;;;;;;;7429514;19;20144;-88
2023/07/21 07:06:32;;;;;;;0.43;0.43;;;;;;;;;;7396263;19;20144;-88
2023/07/21 07:08:58;;;;;;;0.70;0.70;;;;;;;;;;7397677;19;20137;-87
2023/07/21 07:11:26;;;;;;;0.60;0.60;;;;;;;;;;7403558;19;20189;-86
2023/07/21 07:13:54;;;;;;;0.40;0.40;;;;;;;;;;7417450;19;20129;-87
2023/07/21 07:16:20;;;;;;;0.45;0.45;;;;;;;;;;7414299;19;20141;-89
2023/07/21 07:18:47;;;;;;;0.70;0.70;;;;;;;;;;7413960;19;20148;-86
2023/07/21 07:21:14;;;;;;;0.57;0.57;;;;;;;;;;7417155;19;20623;-87
2023/07/21 07:23:41;;;;;;;0.60;0.60;;;;;;;;;;7411058;19;20145;-86
2023/07/21 07:26:09;;;;;;;0.80;0.70;;;;;;;;;;7397106;19;20151;-86
2023/07/21 07:28:35;;;;;;;0.40;0.40;;;;;;;;;;7396784;19;20129;-86
2023/07/21 07:31:04;;;;;;;0.60;0.60;;;;;;;;;;7396227;19;20144;-85
2023/07/21 07:33:31;;;;;;;0.43;0.43;;;;;;;;;;7398329;19;20125;-86
2023/07/21 07:35:59;;;;;;;0.30;0.30;;;;;;;;;;7396357;19;20150;-86
2023/07/21 07:38:27;;;;;;;0.40;0.40;;;;;;;;;;7398729;19;20144;-86
2023/07/21 07:41:00;;;;;;;0.77;0.77;;;;;;;;;;7396345;19;20133;-86
2023/07/21 07:43:32;;;;;;;1.05;0.60;;;;;;;;;;7397683;19;20639;-86
2023/07/21 07:45:59;;;;;;;0.85;0.68;;;;;;;;;;7397594;19;20129;-86
2023/07/21 07:48:25;;;;;;;0.38;0.38;;;;;;;;;;7398569;19;20121;-87
2023/07/21 07:50:53;;;;;;;0.52;0.52;;;;;;;;;;7396813;19;20548;-85
2023/07/21 07:53:20;;;;;;;1.33;0.90;;;;;;;;;;7394946;19;20779;-86
2023/07/21 07:55:47;;;;;;;0.50;0.50;;;;;;;;;;7395842;19;20503;-86
2023/07/21 07:58:14;;;;;;;0.68;0.68;;;;;;;;;;7394330;19;20172;-86
2023/07/21 08:00:44;;;;;;;0.30;0.30;;;;;;;;;;7394452;19;20141;-86
2023/07/21 08:03:11;;;;;;;3.03;1.05;;;;;;;;;;7395460;19;20137;-86
2023/07/21 08:05:39;;;;;;;0.60;0.60;;;;;;;;;;7393641;19;20154;-85
2023/07/21 08:08:07;;;;;;;1.40;0.85;;;;;;;;;;7393312;19;20137;-85
2023/07/21 08:10:38;;;;;;;0.73;0.73;;;;;;;;;;7393338;19;20121;-85
2023/07/21 08:13:04;;;;;;;0.70;0.70;;;;;;;;;;7392651;19;20507;-86
2023/07/21 08:15:31;;;;;;;0.55;0.55;;;;;;;;;;7393175;19;20204;-86
2023/07/21 08:17:58;;;;;;;0.90;0.90;;;;;;;;;;7394053;19;20137;-86
2023/07/21 08:20:25;;;;;;;2.65;0.60;;;;;;;;;;7391969;19;20148;-86
2023/07/21 08:22:51;;;;;;;0.73;0.73;;;;;;;;;;7392875;19;20184;-86
2023/07/21 08:25:19;;;;;;;0.70;0.70;;;;;;;;;;7393377;19;20145;-87
2023/07/21 08:27:46;;;;;;;0.70;0.70;;;;;;;;;;7394022;19;20129;-86
2023/07/21 08:30:13;;;;;;;0.73;0.73;;;;;;;;;;7392850;19;20141;-88
2023/07/21 08:32:43;;;;;;;0.60;0.60;;;;;;;;;;7392515;19;20144;-87
2023/07/21 08:35:10;;;;;;;0.40;0.40;;;;;;;;;;7391951;19;20714;-87
2023/07/21 08:37:38;;;;;;;0.60;0.60;;;;;;;;;;7391829;19;20540;-87
2023/07/21 08:40:06;;;;;;;0.60;0.60;;;;;;;;;;7392119;19;20145;-88
2023/07/21 08:42:36;;;;;;;0.80;0.80;;;;;;;;;;7393101;19;20173;-88
2023/07/21 08:45:04;;;;;;;0.40;0.40;;;;;;;;;;7399672;19;20137;-88
2023/07/21 08:47:32;;;;;;;0.77;0.77;;;;;;;;;;7424884;19;20160;-88
2023/07/21 08:49:59;;;;;;;0.88;0.88;;;;;;;;;;7421278;19;20169;-87
2023/07/21 08:52:26;;;;;;;0.50;0.50;;;;;;;;;;7413042;19;20632;-88
2023/07/21 08:54:53;;;;;;;0.50;0.50;;;;;;;;;;7394407;19;20220;-88
2023/07/21 08:57:20;;;;;;;0.60;0.60;;;;;;;;;;7397984;19;20141;-88
2023/07/21 08:59:47;;;;;;;0.45;0.45;;;;;;;;;;7397999;19;20192;-89
2023/07/21 09:02:13;;;;;;;0.50;0.50;;;;;;;;;;7395358;19;20200;-89
2023/07/21 09:04:43;;;;;;;0.35;0.35;;;;;;;;;;7406624;19;20189;-89
2023/07/21 09:07:11;;;;;;;2.55;0.50;;;;;;;;;;7406721;19;20161;-89
2023/07/21 09:09:37;;;;;;;0.43;0.43;;;;;;;;;;7410609;19;20145;-88
2023/07/21 09:12:07;;;;;;;0.50;0.50;;;;;;;;;;7408664;19;20611;-87
2023/07/21 09:14:38;;;;;;;3.83;0.65;;;;;;;;;;7409885;19;20140;-91
2023/07/21 09:17:06;;;;;;;1.38;1.27;;;;;;;;;;7406169;19;20660;-88
2023/07/21 09:19:36;;;;;;;0.85;0.85;;;;;;;;;;7402404;19;20141;-88
2023/07/21 09:22:04;;;;;;;0.40;0.40;;;;;;;;;;7388412;19;20171;-89
2023/07/21 09:24:30;;;;;;;0.40;0.40;;;;;;;;;;7391350;19;20602;-88
2023/07/21 09:27:18;;;;;;;0.47;0.47;;;;;;;;;;7393011;19;20500;-88
2023/07/21 09:29:46;;;;;;;0.68;0.68;;;;;;;;;;7393984;19;20145;-88
2023/07/21 09:32:22;;;;;;;0.47;0.47;;;;;;;;;;7386048;19;20165;-89
2023/07/21 09:34:53;;;;;;;1.02;0.90;;;;;;;;;;7386870;19;20629;-89
2023/07/21 09:37:21;;;;;;;0.73;0.55;;;;;;;;;;7389055;19;20135;-90
2023/07/21 09:39:52;;;;;;;0.73;0.73;;;;;;;;;;7388836;19;20193;-89
2023/07/21 09:42:21;;;;;;;0.70;0.70;;;;;;;;;;7387116;19;20689;-89
2023/07/21 09:44:48;;;;;;;0.68;0.68;;;;;;;;;;7389468;19;20544;-89
2023/07/21 09:47:18;;;;;;;0.60;0.60;;;;;;;;;;7388949;19;20737;-88
2023/07/21 09:49:46;;;;;;;0.52;0.52;;;;;;;;;;7391094;19;20552;-88
2023/07/21 09:52:15;;;;;;;0.70;0.70;;;;;;;;;;7380988;19;20149;-87
2023/07/21 09:54:46;;;;;;;0.80;0.80;;;;;;;;;;7381564;19;20145;-89
2023/07/21 09:57:19;;;;;;;0.63;0.63;;;;;;;;;;7380878;19;20140;-86
2023/07/21 09:59:49;;;;;;;0.47;0.47;;;;;;;;;;7377641;19;20129;-88
2023/07/21 10:02:16;;;;;;;0.45;0.45;;;;;;;;;;7381794;19;20175;-89
2023/07/21 10:04:43;;;;;;;0.50;0.50;;;;;;;;;;7388662;19;20505;-88
2023/07/21 10:07:10;;;;;;;0.80;0.80;;;;;;;;;;7396204;19;20484;-88
2023/07/21 10:09:37;;;;;;;1.05;1.05;;;;;;;;;;7396222;19;20161;-89
2023/07/21 10:12:09;;;;;;;0.30;0.30;;;;;;;;;;7394539;19;20154;-89
2023/07/21 10:14:37;;;;;;;1.23;1.13;;;;;;;;;;7394330;19;20507;-87
2023/07/21 10:17:05;;;;;;;0.85;0.85;;;;;;;;;;7409684;19;20148;-87
2023/07/21 10:19:43;;;;;;;0.52;0.52;;;;;;;;;;7429735;19;20133;-88
2023/07/21 10:22:26;;;;;;;0.55;0.55;;;;;;;;;;7425929;19;20140;-90
2023/07/21 10:24:52;;;;;;;0.50;0.50;;;;;;;;;;7420296;19;20153;-86
2023/07/21 10:27:20;;;;;;;0.57;0.57;;;;;;;;;;7418998;19;20607;-87
2023/07/21 10:29:51;;;;;;;0.40;0.40;;;;;;;;;;7413460;19;20154;-87
2023/07/21 10:32:20;;;;;;;0.85;0.85;;;;;;;;;;7401322;19;20172;-87
2023/07/21 10:34:48;;;;;;;0.40;0.40;;;;;;;;;;7414392;19;20137;-87
2023/07/21 10:37:15;;;;;;;0.70;0.70;;;;;;;;;;7422610;19;20380;-86
2023/07/21 10:39:42;;;;;;;0.45;0.45;;;;;;;;;;7416397;19;20117;-87
2023/07/21 10:42:10;;;;;;;0.60;0.60;;;;;;;;;;7403352;19;20509;-87
2023/07/21 10:44:38;;;;;;;0.50;0.50;;;;;;;;;;7394592;19;20141;-89
2023/07/21 10:47:11;;;;;;;0.40;0.40;;;;;;;;;;7394768;19;20133;-87
2023/07/21 10:49:38;;;;;;;0.93;0.93;;;;;;;;;;7394813;19;20145;-88
2023/07/21 10:52:05;;;;;;;0.60;0.60;;;;;;;;;;7394635;19;20165;-87
2023/07/21 10:54:32;;;;;;;1.80;1.08;;;;;;;;;;7395417;19;20205;-87
2023/07/21 10:57:00;;;;;;;1.30;1.05;;;;;;;;;;7397968;19;20162;-88
2023/07/21 10:59:29;;;;;;;0.68;0.68;;;;;;;;;;7396111;19;20132;-88
2023/07/21 11:01:56;;;;;;;0.88;0.88;;;;;;;;;;7393814;19;20519;-87
2023/07/21 11:04:23;;;;;;;0.50;0.50;;;;;;;;;;7394736;19;20177;-88
2023/07/21 11:06:52;;;;;;;0.70;0.70;;;;;;;;;;7395251;19;20480;-89
2023/07/21 11:09:21;;;;;;;0.60;0.60;;;;;;;;;;7395330;19;20137;-88
2023/07/21 11:11:59;;;;;;;0.60;0.60;;;;;;;;;;7388864;19;20698;-87
2023/07/21 11:14:27;;;;;;;0.52;0.52;;;;;;;;;;7391148;19;20145;-87
2023/07/21 11:17:01;;;;;;;0.68;0.68;;;;;;;;;;7392936;19;20667;-87
2023/07/21 11:19:32;;;;;;;0.52;0.52;;;;;;;;;;7393994;19;20163;-87
2023/07/21 11:21:59;;;;;;;0.82;0.82;;;;;;;;;;7387330;19;20165;-85
2023/07/21 11:24:28;;;;;;;0.82;0.82;;;;;;;;;;7394052;19;20151;-86
2023/07/21 11:27:01;;;;;;;0.77;0.77;;;;;;;;;;7394966;19;20133;-88
2023/07/21 11:29:43;;;;;;;1.52;1.05;;;;;;;;;;7393295;19;20698;-88
2023/07/21 11:32:18;;;;;;;0.45;0.45;;;;;;;;;;7391076;19;20152;-87
2023/07/21 11:34:45;;;;;;;0.70;0.70;;;;;;;;;;7393379;19;20476;-86
2023/07/21 11:37:14;;;;;;;0.50;0.50;;;;;;;;;;7393601;19;20151;-88
2023/07/21 11:39:40;;;;;;;0.50;0.50;;;;;;;;;;7394347;19;20125;-87
2023/07/21 11:42:08;;;;;;;0.70;0.70;;;;;;;;;;7391598;19;20169;-88
2023/07/21 11:44:35;;;;;;;0.85;0.85;;;;;;;;;;7396253;19;20627;-86
2023/07/21 11:47:11;;;;;;;0.70;0.70;;;;;;;;;;7401503;19;20125;-88
2023/07/21 11:49:39;;;;;;;0.88;0.80;;;;;;;;;;7402466;19;20128;-89
2023/07/21 11:52:08;;;;;;;0.70;0.70;;;;;;;;;;7397947;19;20191;-87
2023/07/21 11:54:46;;;;;;;1.10;1.02;;;;;;;;;;7397900;19;20161;-88
2023/07/21 11:57:13;;;;;;;0.40;0.40;;;;;;;;;;7397192;19;20141;-87
2023/07/21 11:59:41;;;;;;;1.17;0.82;;;;;;;;;;7398446;19;20151;-88
2023/07/21 12:02:08;;;;;;;0.40;0.40;;;;;;;;;;7402827;19;20161;-89
2023/07/21 12:04:37;;;;;;;0.80;0.80;;;;;;;;;;7398561;19;20142;-87
2023/07/21 12:07:05;;;;;;;0.85;0.68;;;;;;;;;;7405096;19;20137;-90
2023/07/21 12:09:32;;;;;;;0.50;0.50;;;;;;;;;;7402941;19;20161;-89
2023/07/21 12:11:59;;;;;;;0.47;0.47;;;;;;;;;;7396323;19;20165;-88
2023/07/21 12:14:26;;;;;;;0.55;0.55;;;;;;;;;;7391931;19;20137;-87
2023/07/21 12:16:55;;;;;;;0.40;0.40;;;;;;;;;;7392228;19;20595;-86
2023/07/21 12:19:24;;;;;;;0.65;0.65;;;;;;;;;;7390304;19;20137;-87
2023/07/21 12:21:52;;;;;;;0.65;0.65;;;;;;;;;;7388840;19;20176;-86
2023/07/21 12:24:19;;;;;;;1.15;1.05;;;;;;;;;;7389529;19;20162;-86
2023/07/21 12:26:46;;;;;;;0.50;0.50;;;;;;;;;;7390919;19;20146;-85
2023/07/21 12:29:13;;;;;;;0.40;0.40;;;;;;;;;;7402249;19;20141;-86
2023/07/21 12:31:59;;;;;;;1.10;0.90;;;;;;;;;;7406916;19;20168;-85
2023/07/21 12:34:26;;;;;;;0.55;0.55;;;;;;;;;;7394174;19;20145;-86
2023/07/21 12:36:53;;;;;;;1.20;0.70;;;;;;;;;;7393610;19;20133;-87
2023/07/21 12:39:20;;;;;;;0.50;0.50;;;;;;;;;;7389748;19;20631;-86
2023/07/21 12:41:47;;;;;;;0.40;0.40;;;;;;;;;;7392586;19;20175;-87
2023/07/21 12:44:14;;;;;;;0.50;0.50;;;;;;;;;;7393534;19;20141;-86
2023/07/21 12:46:40;;;;;;;0.57;0.57;;;;;;;;;;7390832;19;20209;-86
2023/07/21 12:49:09;;;;;;;0.40;0.40;;;;;;;;;;7393858;19;20141;-89
2023/07/21 12:51:38;;;;;;;0.40;0.40;;;;;;;;;;7391865;19;20164;-86
2023/07/21 12:54:05;;;;;;;0.60;0.60;;;;;;;;;;7395065;19;20193;-87
2023/07/21 12:56:35;;;;;;;0.65;0.65;;;;;;;;;;7394474;19;20164;-86
2023/07/21 12:59:01;;;;;;;0.70;0.70;;;;;;;;;;7393803;19;20147;-85
2023/07/21 13:01:28;;;;;;;0.50;0.50;;;;;;;;;;7390264;19;20663;-85
